sensor_id;sensor_type;location;lat;lon;timestamp;temperature;humidity
32536;DHT22;18974;50.838;4.636;2024-02-21T00:00:51;10.20;99.90
32536;DHT22;18974;50.838;4.636;2024-02-21T00:03:16;10.30;99.90
32536;DHT22;18974;50.838;4.636;2024-02-21T00:05:42;10.30;99.90
32536;DHT22;18974;50.838;4.636;2024-02-21T00:08:08;10.30;99.90
32536;DHT22;18974;50.838;4.636;2024-02-21T00:10:34;10.50;99.90
32536;DHT22;18974;50.838;4.636;2024-02-21T00:13:00;10.40;99.90
32536;DHT22;18974;50.838;4.636;2024-02-21T00:15:26;10.40;99.90
32536;DHT22;18974;50.838;4.636;2024-02-21T00:17:52;10.30;99.90
32536;DHT22;18974;50.838;4.636;2024-02-21T00:20:17;10.40;99.90
32536;DHT22;18974;50.838;4.636;2024-02-21T00:22:46;10.40;99.90
32536;DHT22;18974;50.838;4.636;2024-02-21T00:25:13;10.40;99.90
32536;DHT22;18974;50.838;4.636;2024-02-21T00:27:38;10.40;99.90
32536;DHT22;18974;50.838;4.636;2024-02-21T00:30:07;10.30;99.90
32536;DHT22;18974;50.838;4.636;2024-02-21T00:32:33;10.30;99.90
32536;DHT22;18974;50.838;4.636;2024-02-21T00:35:00;10.30;99.90
32536;DHT22;18974;50.838;4.636;2024-02-21T00:37:26;10.30;99.90
32536;DHT22;18974;50.838;4.636;2024-02-21T00:39:56;10.20;99.90
32536;DHT22;18974;50.838;4.636;2024-02-21T00:42:21;10.20;99.90
32536;DHT22;18974;50.838;4.636;2024-02-21T00:44:47;10.10;99.90
32536;DHT22;18974;50.838;4.636;2024-02-21T00:47:13;10.00;99.90
32536;DHT22;18974;50.838;4.636;2024-02-21T00:49:38;10.00;99.90
32536;DHT22;18974;50.838;4.636;2024-02-21T00:52:04;10.00;99.90
32536;DHT22;18974;50.838;4.636;2024-02-21T00:54:30;10.10;99.90
32536;DHT22;18974;50.838;4.636;2024-02-21T00:56:55;10.10;99.90
32536;DHT22;18974;50.838;4.636;2024-02-21T00:59:21;10.10;99.90
32536;DHT22;18974;50.838;4.636;2024-02-21T01:01:46;10.10;99.90
32536;DHT22;18974;50.838;4.636;2024-02-21T01:04:12;10.10;99.90
32536;DHT22;18974;50.838;4.636;2024-02-21T01:06:38;10.10;99.90
32536;DHT22;18974;50.838;4.636;2024-02-21T01:09:04;10.20;99.90
32536;DHT22;18974;50.838;4.636;2024-02-21T01:11:29;10.30;99.90
32536;DHT22;18974;50.838;4.636;2024-02-21T01:13:55;10.30;99.90
32536;DHT22;18974;50.838;4.636;2024-02-21T01:16:21;10.20;99.90
32536;DHT22;18974;50.838;4.636;2024-02-21T01:18:47;10.20;99.90
32536;DHT22;18974;50.838;4.636;2024-02-21T01:21:12;10.10;99.90
32536;DHT22;18974;50.838;4.636;2024-02-21T01:23:38;10.10;99.90
32536;DHT22;18974;50.838;4.636;2024-02-21T01:26:04;10.00;99.90
32536;DHT22;18974;50.838;4.636;2024-02-21T01:28:30;9.90;99.90
32536;DHT22;18974;50.838;4.636;2024-02-21T01:30:59;9.90;99.90
32536;DHT22;18974;50.838;4.636;2024-02-21T01:33:24;10.00;99.90
32536;DHT22;18974;50.838;4.636;2024-02-21T01:35:50;10.10;99.90
32536;DHT22;18974;50.838;4.636;2024-02-21T01:38:16;10.00;99.90
32536;DHT22;18974;50.838;4.636;2024-02-21T01:40:42;10.10;99.90
32536;DHT22;18974;50.838;4.636;2024-02-21T01:43:18;10.10;99.90
32536;DHT22;18974;50.838;4.636;2024-02-21T01:45:49;10.10;99.90
32536;DHT22;18974;50.838;4.636;2024-02-21T01:48:17;10.10;99.90
32536;DHT22;18974;50.838;4.636;2024-02-21T01:50:47;10.10;99.90
32536;DHT22;18974;50.838;4.636;2024-02-21T01:53:16;10.10;99.90
32536;DHT22;18974;50.838;4.636;2024-02-21T01:55:48;10.10;99.90
32536;DHT22;18974;50.838;4.636;2024-02-21T01:58:17;10.00;99.90
32536;DHT22;18974;50.838;4.636;2024-02-21T02:00:45;10.10;99.90
32536;DHT22;18974;50.838;4.636;2024-02-21T02:03:11;10.10;99.90
32536;DHT22;18974;50.838;4.636;2024-02-21T02:05:51;10.00;99.90
32536;DHT22;18974;50.838;4.636;2024-02-21T02:08:20;10.10;99.90
32536;DHT22;18974;50.838;4.636;2024-02-21T02:10:47;10.10;99.90
32536;DHT22;18974;50.838;4.636;2024-02-21T02:13:13;10.10;99.90
32536;DHT22;18974;50.838;4.636;2024-02-21T02:15:44;10.10;99.90
32536;DHT22;18974;50.838;4.636;2024-02-21T02:18:10;10.10;99.90
32536;DHT22;18974;50.838;4.636;2024-02-21T02:20:37;10.20;99.90
32536;DHT22;18974;50.838;4.636;2024-02-21T02:23:25;10.20;99.90
32536;DHT22;18974;50.838;4.636;2024-02-21T02:25:51;10.20;99.90
32536;DHT22;18974;50.838;4.636;2024-02-21T02:28:18;10.30;99.90
32536;DHT22;18974;50.838;4.636;2024-02-21T02:30:44;10.20;99.90
32536;DHT22;18974;50.838;4.636;2024-02-21T02:33:10;10.00;99.90
32536;DHT22;18974;50.838;4.636;2024-02-21T02:35:35;10.00;99.90
32536;DHT22;18974;50.838;4.636;2024-02-21T02:38:02;10.00;99.90
32536;DHT22;18974;50.838;4.636;2024-02-21T02:40:28;10.00;99.90
32536;DHT22;18974;50.838;4.636;2024-02-21T02:42:54;10.10;99.90
32536;DHT22;18974;50.838;4.636;2024-02-21T02:45:23;10.10;99.90
32536;DHT22;18974;50.838;4.636;2024-02-21T02:47:49;10.10;99.90
32536;DHT22;18974;50.838;4.636;2024-02-21T02:50:15;10.00;99.90
32536;DHT22;18974;50.838;4.636;2024-02-21T02:52:41;10.10;99.90
32536;DHT22;18974;50.838;4.636;2024-02-21T02:55:07;10.10;99.90
32536;DHT22;18974;50.838;4.636;2024-02-21T02:57:33;10.20;99.90
32536;DHT22;18974;50.838;4.636;2024-02-21T02:59:58;10.20;99.90
32536;DHT22;18974;50.838;4.636;2024-02-21T03:02:24;10.30;99.90
32536;DHT22;18974;50.838;4.636;2024-02-21T03:04:50;10.30;99.90
32536;DHT22;18974;50.838;4.636;2024-02-21T03:07:16;10.20;99.90
32536;DHT22;18974;50.838;4.636;2024-02-21T03:09:42;10.10;99.90
32536;DHT22;18974;50.838;4.636;2024-02-21T03:12:10;10.00;99.90
32536;DHT22;18974;50.838;4.636;2024-02-21T03:14:37;10.00;99.90
32536;DHT22;18974;50.838;4.636;2024-02-21T03:17:03;10.10;99.90
32536;DHT22;18974;50.838;4.636;2024-02-21T03:19:29;10.10;99.90
32536;DHT22;18974;50.838;4.636;2024-02-21T03:21:55;10.20;99.90
32536;DHT22;18974;50.838;4.636;2024-02-21T03:24:20;10.20;99.90
32536;DHT22;18974;50.838;4.636;2024-02-21T03:26:46;10.10;99.90
32536;DHT22;18974;50.838;4.636;2024-02-21T03:29:16;10.10;99.90
32536;DHT22;18974;50.838;4.636;2024-02-21T03:31:42;10.00;99.90
32536;DHT22;18974;50.838;4.636;2024-02-21T03:34:10;10.00;99.90
32536;DHT22;18974;50.838;4.636;2024-02-21T03:36:36;10.00;99.90
32536;DHT22;18974;50.838;4.636;2024-02-21T03:39:02;10.10;99.90
32536;DHT22;18974;50.838;4.636;2024-02-21T03:41:28;10.10;99.90
32536;DHT22;18974;50.838;4.636;2024-02-21T03:43:54;10.00;99.90
32536;DHT22;18974;50.838;4.636;2024-02-21T03:46:19;10.00;99.90
32536;DHT22;18974;50.838;4.636;2024-02-21T03:48:45;10.10;99.90
32536;DHT22;18974;50.838;4.636;2024-02-21T03:51:11;10.10;99.90
32536;DHT22;18974;50.838;4.636;2024-02-21T03:53:37;10.10;99.90
32536;DHT22;18974;50.838;4.636;2024-02-21T03:56:03;10.00;99.90
32536;DHT22;18974;50.838;4.636;2024-02-21T03:58:30;9.90;99.90
32536;DHT22;18974;50.838;4.636;2024-02-21T04:00:56;9.90;99.90
32536;DHT22;18974;50.838;4.636;2024-02-21T04:03:22;10.00;99.90
32536;DHT22;18974;50.838;4.636;2024-02-21T04:05:48;10.00;99.90
32536;DHT22;18974;50.838;4.636;2024-02-21T04:08:14;10.00;99.90
32536;DHT22;18974;50.838;4.636;2024-02-21T04:10:39;10.00;99.90
32536;DHT22;18974;50.838;4.636;2024-02-21T04:13:06;10.00;99.90
32536;DHT22;18974;50.838;4.636;2024-02-21T04:15:32;10.10;99.90
32536;DHT22;18974;50.838;4.636;2024-02-21T04:17:58;10.10;99.90
32536;DHT22;18974;50.838;4.636;2024-02-21T04:20:24;10.10;99.90
32536;DHT22;18974;50.838;4.636;2024-02-21T04:22:50;9.90;99.90
32536;DHT22;18974;50.838;4.636;2024-02-21T04:25:15;10.00;99.90
32536;DHT22;18974;50.838;4.636;2024-02-21T04:27:41;10.00;99.90
32536;DHT22;18974;50.838;4.636;2024-02-21T04:30:07;9.90;99.90
32536;DHT22;18974;50.838;4.636;2024-02-21T04:32:35;10.00;99.90
32536;DHT22;18974;50.838;4.636;2024-02-21T04:35:00;10.00;99.90
32536;DHT22;18974;50.838;4.636;2024-02-21T04:37:26;10.00;99.90
32536;DHT22;18974;50.838;4.636;2024-02-21T04:39:52;10.00;99.90
32536;DHT22;18974;50.838;4.636;2024-02-21T04:42:17;10.00;99.90
32536;DHT22;18974;50.838;4.636;2024-02-21T04:44:43;9.90;99.90
32536;DHT22;18974;50.838;4.636;2024-02-21T04:47:09;10.10;99.90
32536;DHT22;18974;50.838;4.636;2024-02-21T04:49:35;10.10;99.90
32536;DHT22;18974;50.838;4.636;2024-02-21T04:52:01;10.10;99.90
32536;DHT22;18974;50.838;4.636;2024-02-21T04:54:27;10.00;99.90
32536;DHT22;18974;50.838;4.636;2024-02-21T04:56:52;10.00;99.90
32536;DHT22;18974;50.838;4.636;2024-02-21T04:59:18;10.00;99.90
32536;DHT22;18974;50.838;4.636;2024-02-21T05:01:44;10.00;99.90
32536;DHT22;18974;50.838;4.636;2024-02-21T05:04:09;10.00;99.90
32536;DHT22;18974;50.838;4.636;2024-02-21T05:06:42;10.00;99.90
32536;DHT22;18974;50.838;4.636;2024-02-21T05:09:08;10.00;99.90
32536;DHT22;18974;50.838;4.636;2024-02-21T05:11:35;10.00;99.90
32536;DHT22;18974;50.838;4.636;2024-02-21T05:14:01;9.90;99.90
32536;DHT22;18974;50.838;4.636;2024-02-21T05:16:26;10.00;99.90
32536;DHT22;18974;50.838;4.636;2024-02-21T05:18:52;10.00;99.90
32536;DHT22;18974;50.838;4.636;2024-02-21T05:21:18;9.90;99.90
32536;DHT22;18974;50.838;4.636;2024-02-21T05:23:44;9.90;99.90
32536;DHT22;18974;50.838;4.636;2024-02-21T05:26:10;10.00;99.90
32536;DHT22;18974;50.838;4.636;2024-02-21T05:28:36;10.00;99.90
32536;DHT22;18974;50.838;4.636;2024-02-21T05:31:01;9.90;99.90
32536;DHT22;18974;50.838;4.636;2024-02-21T05:33:27;9.90;99.90
32536;DHT22;18974;50.838;4.636;2024-02-21T05:35:53;9.90;99.90
32536;DHT22;18974;50.838;4.636;2024-02-21T05:38:19;9.90;99.90
32536;DHT22;18974;50.838;4.636;2024-02-21T05:40:45;9.90;99.90
32536;DHT22;18974;50.838;4.636;2024-02-21T05:43:10;9.90;99.90
32536;DHT22;18974;50.838;4.636;2024-02-21T05:45:36;9.90;99.90
32536;DHT22;18974;50.838;4.636;2024-02-21T05:48:03;10.00;99.90
32536;DHT22;18974;50.838;4.636;2024-02-21T05:50:29;9.90;99.90
32536;DHT22;18974;50.838;4.636;2024-02-21T05:52:55;9.90;99.90
32536;DHT22;18974;50.838;4.636;2024-02-21T05:55:23;9.80;99.90
32536;DHT22;18974;50.838;4.636;2024-02-21T05:57:49;9.80;99.90
32536;DHT22;18974;50.838;4.636;2024-02-21T06:00:15;9.80;99.90
32536;DHT22;18974;50.838;4.636;2024-02-21T06:02:42;9.80;99.90
32536;DHT22;18974;50.838;4.636;2024-02-21T06:05:08;9.80;99.90
32536;DHT22;18974;50.838;4.636;2024-02-21T06:07:34;9.90;99.90
32536;DHT22;18974;50.838;4.636;2024-02-21T06:10:03;9.90;99.90
32536;DHT22;18974;50.838;4.636;2024-02-21T06:12:29;9.90;99.90
32536;DHT22;18974;50.838;4.636;2024-02-21T06:14:54;9.90;99.90
32536;DHT22;18974;50.838;4.636;2024-02-21T06:17:20;9.80;99.90
32536;DHT22;18974;50.838;4.636;2024-02-21T06:19:46;9.80;99.90
32536;DHT22;18974;50.838;4.636;2024-02-21T06:22:12;9.80;99.90
32536;DHT22;18974;50.838;4.636;2024-02-21T06:24:38;9.80;99.90
32536;DHT22;18974;50.838;4.636;2024-02-21T06:27:04;9.80;99.90
32536;DHT22;18974;50.838;4.636;2024-02-21T06:29:31;9.80;99.90
32536;DHT22;18974;50.838;4.636;2024-02-21T06:31:57;9.80;99.90
32536;DHT22;18974;50.838;4.636;2024-02-21T06:34:23;9.80;99.90
32536;DHT22;18974;50.838;4.636;2024-02-21T06:36:49;9.90;99.90
32536;DHT22;18974;50.838;4.636;2024-02-21T06:39:15;9.90;99.90
32536;DHT22;18974;50.838;4.636;2024-02-21T06:41:41;9.80;99.90
32536;DHT22;18974;50.838;4.636;2024-02-21T06:44:06;9.80;99.90
32536;DHT22;18974;50.838;4.636;2024-02-21T06:46:32;9.80;99.90
32536;DHT22;18974;50.838;4.636;2024-02-21T06:48:59;9.80;99.90
32536;DHT22;18974;50.838;4.636;2024-02-21T06:51:26;9.80;99.90
32536;DHT22;18974;50.838;4.636;2024-02-21T06:53:52;9.80;99.90
32536;DHT22;18974;50.838;4.636;2024-02-21T06:56:18;9.80;99.90
32536;DHT22;18974;50.838;4.636;2024-02-21T06:58:43;9.80;99.90
32536;DHT22;18974;50.838;4.636;2024-02-21T07:01:10;9.80;99.90
32536;DHT22;18974;50.838;4.636;2024-02-21T07:03:36;9.70;99.90
32536;DHT22;18974;50.838;4.636;2024-02-21T07:06:02;9.60;99.90
32536;DHT22;18974;50.838;4.636;2024-02-21T07:08:28;9.50;99.90
32536;DHT22;18974;50.838;4.636;2024-02-21T07:10:53;9.50;99.90
32536;DHT22;18974;50.838;4.636;2024-02-21T07:13:19;9.50;99.90
32536;DHT22;18974;50.838;4.636;2024-02-21T07:15:46;9.50;99.90
32536;DHT22;18974;50.838;4.636;2024-02-21T07:18:11;9.50;99.90
32536;DHT22;18974;50.838;4.636;2024-02-21T07:20:37;9.40;99.90
32536;DHT22;18974;50.838;4.636;2024-02-21T07:23:03;9.40;99.90
32536;DHT22;18974;50.838;4.636;2024-02-21T07:25:29;9.50;99.90
32536;DHT22;18974;50.838;4.636;2024-02-21T07:27:55;9.40;99.90
32536;DHT22;18974;50.838;4.636;2024-02-21T07:30:21;9.60;99.90
32536;DHT22;18974;50.838;4.636;2024-02-21T07:32:49;9.60;99.90
32536;DHT22;18974;50.838;4.636;2024-02-21T07:35:16;9.50;99.90
32536;DHT22;18974;50.838;4.636;2024-02-21T07:37:41;9.60;99.90
32536;DHT22;18974;50.838;4.636;2024-02-21T07:40:13;9.50;99.90
32536;DHT22;18974;50.838;4.636;2024-02-21T07:42:39;9.50;99.90
32536;DHT22;18974;50.838;4.636;2024-02-21T07:45:05;9.50;99.90
32536;DHT22;18974;50.838;4.636;2024-02-21T07:47:30;9.50;99.90
32536;DHT22;18974;50.838;4.636;2024-02-21T07:49:56;9.50;99.90
32536;DHT22;18974;50.838;4.636;2024-02-21T07:52:21;9.50;99.90
32536;DHT22;18974;50.838;4.636;2024-02-21T07:54:47;9.70;99.90
32536;DHT22;18974;50.838;4.636;2024-02-21T07:57:13;9.70;99.90
32536;DHT22;18974;50.838;4.636;2024-02-21T07:59:38;9.60;99.90
32536;DHT22;18974;50.838;4.636;2024-02-21T08:02:04;9.70;99.90
32536;DHT22;18974;50.838;4.636;2024-02-21T08:04:32;9.70;99.90
32536;DHT22;18974;50.838;4.636;2024-02-21T08:06:58;9.60;99.90
32536;DHT22;18974;50.838;4.636;2024-02-21T08:09:29;9.70;99.90
32536;DHT22;18974;50.838;4.636;2024-02-21T08:11:55;9.70;99.90
32536;DHT22;18974;50.838;4.636;2024-02-21T08:14:21;9.80;99.90
32536;DHT22;18974;50.838;4.636;2024-02-21T08:16:47;9.70;99.90
32536;DHT22;18974;50.838;4.636;2024-02-21T08:19:13;9.80;99.90
32536;DHT22;18974;50.838;4.636;2024-02-21T08:21:39;9.80;99.90
32536;DHT22;18974;50.838;4.636;2024-02-21T08:24:05;9.90;99.90
32536;DHT22;18974;50.838;4.636;2024-02-21T08:26:30;9.90;99.90
32536;DHT22;18974;50.838;4.636;2024-02-21T08:28:57;9.80;99.90
32536;DHT22;18974;50.838;4.636;2024-02-21T08:31:26;9.80;99.90
32536;DHT22;18974;50.838;4.636;2024-02-21T08:33:59;9.90;99.90
32536;DHT22;18974;50.838;4.636;2024-02-21T08:36:31;9.90;99.90
32536;DHT22;18974;50.838;4.636;2024-02-21T08:38:57;9.90;99.90
32536;DHT22;18974;50.838;4.636;2024-02-21T08:41:24;10.00;99.90
32536;DHT22;18974;50.838;4.636;2024-02-21T08:43:53;10.00;99.90
32536;DHT22;18974;50.838;4.636;2024-02-21T08:46:20;10.10;99.90
32536;DHT22;18974;50.838;4.636;2024-02-21T08:48:50;10.00;99.90
32536;DHT22;18974;50.838;4.636;2024-02-21T08:51:17;10.00;99.90
32536;DHT22;18974;50.838;4.636;2024-02-21T08:53:43;10.00;99.90
32536;DHT22;18974;50.838;4.636;2024-02-21T08:56:09;10.10;99.90
32536;DHT22;18974;50.838;4.636;2024-02-21T08:58:36;10.00;99.90
32536;DHT22;18974;50.838;4.636;2024-02-21T09:01:03;10.00;99.90
32536;DHT22;18974;50.838;4.636;2024-02-21T09:03:33;10.10;99.90
32536;DHT22;18974;50.838;4.636;2024-02-21T09:06:00;10.10;99.90
32536;DHT22;18974;50.838;4.636;2024-02-21T09:08:26;10.10;99.90
32536;DHT22;18974;50.838;4.636;2024-02-21T09:10:52;10.10;99.90
32536;DHT22;18974;50.838;4.636;2024-02-21T09:13:18;10.20;99.90
32536;DHT22;18974;50.838;4.636;2024-02-21T09:15:43;10.30;99.90
32536;DHT22;18974;50.838;4.636;2024-02-21T09:18:09;10.40;99.90
32536;DHT22;18974;50.838;4.636;2024-02-21T09:20:35;10.30;99.90
32536;DHT22;18974;50.838;4.636;2024-02-21T09:23:01;10.40;99.90
32536;DHT22;18974;50.838;4.636;2024-02-21T09:25:26;10.40;99.90
32536;DHT22;18974;50.838;4.636;2024-02-21T09:27:54;10.50;99.90
32536;DHT22;18974;50.838;4.636;2024-02-21T09:30:20;10.50;99.90
32536;DHT22;18974;50.838;4.636;2024-02-21T09:32:45;10.40;99.90
32536;DHT22;18974;50.838;4.636;2024-02-21T09:35:11;10.40;99.90
32536;DHT22;18974;50.838;4.636;2024-02-21T09:37:38;10.30;99.90
32536;DHT22;18974;50.838;4.636;2024-02-21T09:40:04;10.40;99.90
32536;DHT22;18974;50.838;4.636;2024-02-21T09:42:40;10.50;99.90
32536;DHT22;18974;50.838;4.636;2024-02-21T09:45:25;10.50;99.90
32536;DHT22;18974;50.838;4.636;2024-02-21T09:50:34;10.80;99.90
32536;DHT22;18974;50.838;4.636;2024-02-21T09:53:01;10.80;99.90
32536;DHT22;18974;50.838;4.636;2024-02-21T09:55:29;10.70;99.90
32536;DHT22;18974;50.838;4.636;2024-02-21T09:57:58;10.80;99.90
32536;DHT22;18974;50.838;4.636;2024-02-21T10:00:24;10.80;99.90
32536;DHT22;18974;50.838;4.636;2024-02-21T10:02:50;10.80;99.90
32536;DHT22;18974;50.838;4.636;2024-02-21T10:05:16;10.90;99.90
32536;DHT22;18974;50.838;4.636;2024-02-21T10:07:43;10.90;99.90
32536;DHT22;18974;50.838;4.636;2024-02-21T10:10:09;11.00;99.90
32536;DHT22;18974;50.838;4.636;2024-02-21T10:12:35;11.10;99.90
32536;DHT22;18974;50.838;4.636;2024-02-21T10:15:04;11.20;99.90
32536;DHT22;18974;50.838;4.636;2024-02-21T10:17:34;11.30;99.90
32536;DHT22;18974;50.838;4.636;2024-02-21T10:20:09;11.20;99.90
32536;DHT22;18974;50.838;4.636;2024-02-21T10:22:35;11.20;99.90
32536;DHT22;18974;50.838;4.636;2024-02-21T10:25:12;11.20;99.90
32536;DHT22;18974;50.838;4.636;2024-02-21T10:27:41;11.10;99.90
32536;DHT22;18974;50.838;4.636;2024-02-21T10:30:14;11.10;99.90
32536;DHT22;18974;50.838;4.636;2024-02-21T10:32:55;11.00;99.90
32536;DHT22;18974;50.838;4.636;2024-02-21T10:35:31;11.10;99.90
32536;DHT22;18974;50.838;4.636;2024-02-21T10:37:57;11.30;99.90
32536;DHT22;18974;50.838;4.636;2024-02-21T10:40:28;11.30;99.90
32536;DHT22;18974;50.838;4.636;2024-02-21T10:43:00;11.50;99.90
32536;DHT22;18974;50.838;4.636;2024-02-21T10:45:35;11.40;99.90
32536;DHT22;18974;50.838;4.636;2024-02-21T10:48:25;11.50;99.90
32536;DHT22;18974;50.838;4.636;2024-02-21T10:50:57;11.40;99.90
32536;DHT22;18974;50.838;4.636;2024-02-21T10:53:36;11.40;99.90
32536;DHT22;18974;50.838;4.636;2024-02-21T10:56:26;11.40;99.90
32536;DHT22;18974;50.838;4.636;2024-02-21T10:58:53;11.40;99.90
32536;DHT22;18974;50.838;4.636;2024-02-21T11:01:19;11.50;99.90
32536;DHT22;18974;50.838;4.636;2024-02-21T11:03:45;11.60;99.90
32536;DHT22;18974;50.838;4.636;2024-02-21T11:06:12;11.60;99.90
32536;DHT22;18974;50.838;4.636;2024-02-21T11:08:39;11.50;99.90
32536;DHT22;18974;50.838;4.636;2024-02-21T11:11:05;11.50;99.90
32536;DHT22;18974;50.838;4.636;2024-02-21T11:13:35;11.50;99.90
32536;DHT22;18974;50.838;4.636;2024-02-21T11:16:10;11.50;99.90
32536;DHT22;18974;50.838;4.636;2024-02-21T11:18:40;11.60;99.90
32536;DHT22;18974;50.838;4.636;2024-02-21T11:21:05;11.60;99.90
32536;DHT22;18974;50.838;4.636;2024-02-21T11:23:31;11.50;99.90
32536;DHT22;18974;50.838;4.636;2024-02-21T11:26:07;11.50;99.90
32536;DHT22;18974;50.838;4.636;2024-02-21T11:28:33;11.50;99.90
32536;DHT22;18974;50.838;4.636;2024-02-21T11:31:10;11.50;99.90
32536;DHT22;18974;50.838;4.636;2024-02-21T11:33:39;11.50;99.90
32536;DHT22;18974;50.838;4.636;2024-02-21T11:36:06;11.70;99.90
32536;DHT22;18974;50.838;4.636;2024-02-21T11:38:31;11.50;99.90
32536;DHT22;18974;50.838;4.636;2024-02-21T11:40:57;11.40;99.90
32536;DHT22;18974;50.838;4.636;2024-02-21T11:43:23;11.50;99.90
32536;DHT22;18974;50.838;4.636;2024-02-21T11:45:49;11.60;99.90
32536;DHT22;18974;50.838;4.636;2024-02-21T11:48:15;11.50;99.90
32536;DHT22;18974;50.838;4.636;2024-02-21T11:50:40;11.50;99.90
32536;DHT22;18974;50.838;4.636;2024-02-21T11:53:06;11.50;99.90
32536;DHT22;18974;50.838;4.636;2024-02-21T11:55:32;11.60;99.90
32536;DHT22;18974;50.838;4.636;2024-02-21T11:57:58;11.40;99.90
32536;DHT22;18974;50.838;4.636;2024-02-21T12:00:25;11.30;99.90
32536;DHT22;18974;50.838;4.636;2024-02-21T12:02:51;11.30;99.90
32536;DHT22;18974;50.838;4.636;2024-02-21T12:05:19;11.40;99.90
32536;DHT22;18974;50.838;4.636;2024-02-21T12:07:45;11.40;99.90
32536;DHT22;18974;50.838;4.636;2024-02-21T12:10:11;11.20;99.90
32536;DHT22;18974;50.838;4.636;2024-02-21T12:12:38;11.30;99.90
32536;DHT22;18974;50.838;4.636;2024-02-21T12:15:05;11.30;99.90
32536;DHT22;18974;50.838;4.636;2024-02-21T12:17:36;11.40;99.90
32536;DHT22;18974;50.838;4.636;2024-02-21T12:20:05;11.30;99.90
32536;DHT22;18974;50.838;4.636;2024-02-21T12:22:35;11.20;99.90
32536;DHT22;18974;50.838;4.636;2024-02-21T12:25:03;11.30;99.90
32536;DHT22;18974;50.838;4.636;2024-02-21T12:27:29;11.40;99.90
32536;DHT22;18974;50.838;4.636;2024-02-21T12:29:55;11.40;99.90
32536;DHT22;18974;50.838;4.636;2024-02-21T12:32:21;11.50;99.90
32536;DHT22;18974;50.838;4.636;2024-02-21T12:34:46;11.70;99.90
32536;DHT22;18974;50.838;4.636;2024-02-21T12:37:12;11.70;99.90
32536;DHT22;18974;50.838;4.636;2024-02-21T12:39:38;11.60;99.90
32536;DHT22;18974;50.838;4.636;2024-02-21T12:42:04;11.80;99.90
32536;DHT22;18974;50.838;4.636;2024-02-21T12:44:30;11.80;99.90
32536;DHT22;18974;50.838;4.636;2024-02-21T12:46:55;12.00;99.90
32536;DHT22;18974;50.838;4.636;2024-02-21T12:49:22;11.80;99.90
32536;DHT22;18974;50.838;4.636;2024-02-21T12:51:49;11.80;99.90
32536;DHT22;18974;50.838;4.636;2024-02-21T12:54:15;11.70;99.90
32536;DHT22;18974;50.838;4.636;2024-02-21T12:56:40;11.70;99.90
32536;DHT22;18974;50.838;4.636;2024-02-21T12:59:06;11.60;99.90
32536;DHT22;18974;50.838;4.636;2024-02-21T13:01:35;11.70;99.90
32536;DHT22;18974;50.838;4.636;2024-02-21T13:04:01;11.80;99.90
32536;DHT22;18974;50.838;4.636;2024-02-21T13:06:27;11.80;99.90
32536;DHT22;18974;50.838;4.636;2024-02-21T13:08:53;11.70;99.90
32536;DHT22;18974;50.838;4.636;2024-02-21T13:11:19;11.60;99.90
32536;DHT22;18974;50.838;4.636;2024-02-21T13:13:44;11.70;99.90
32536;DHT22;18974;50.838;4.636;2024-02-21T13:16:10;11.70;99.90
32536;DHT22;18974;50.838;4.636;2024-02-21T13:18:36;11.80;99.90
32536;DHT22;18974;50.838;4.636;2024-02-21T13:21:04;11.70;99.90
32536;DHT22;18974;50.838;4.636;2024-02-21T13:23:30;11.70;99.90
32536;DHT22;18974;50.838;4.636;2024-02-21T13:25:55;11.70;99.90
32536;DHT22;18974;50.838;4.636;2024-02-21T13:28:21;11.70;99.90
32536;DHT22;18974;50.838;4.636;2024-02-21T13:30:47;11.60;99.90
32536;DHT22;18974;50.838;4.636;2024-02-21T13:33:13;11.60;99.90
32536;DHT22;18974;50.838;4.636;2024-02-21T13:35:39;11.60;99.90
32536;DHT22;18974;50.838;4.636;2024-02-21T13:38:04;11.60;99.90
32536;DHT22;18974;50.838;4.636;2024-02-21T13:40:30;11.60;99.90
32536;DHT22;18974;50.838;4.636;2024-02-21T13:42:56;11.60;99.90
32536;DHT22;18974;50.838;4.636;2024-02-21T13:45:22;11.50;99.90
32536;DHT22;18974;50.838;4.636;2024-02-21T13:47:47;11.50;99.90
32536;DHT22;18974;50.838;4.636;2024-02-21T13:50:13;11.40;99.90
32536;DHT22;18974;50.838;4.636;2024-02-21T13:52:40;11.40;99.90
32536;DHT22;18974;50.838;4.636;2024-02-21T13:55:06;11.40;99.90
32536;DHT22;18974;50.838;4.636;2024-02-21T13:57:34;11.40;99.90
32536;DHT22;18974;50.838;4.636;2024-02-21T14:00:00;11.40;99.90
32536;DHT22;18974;50.838;4.636;2024-02-21T14:02:26;11.40;99.90
32536;DHT22;18974;50.838;4.636;2024-02-21T14:04:52;11.40;99.90
32536;DHT22;18974;50.838;4.636;2024-02-21T14:07:17;11.50;99.90
32536;DHT22;18974;50.838;4.636;2024-02-21T14:09:43;11.50;99.90
32536;DHT22;18974;50.838;4.636;2024-02-21T14:12:08;11.30;99.90
32536;DHT22;18974;50.838;4.636;2024-02-21T14:14:35;11.30;99.90
32536;DHT22;18974;50.838;4.636;2024-02-21T14:17:03;11.20;99.90
32536;DHT22;18974;50.838;4.636;2024-02-21T14:19:29;11.20;99.90
32536;DHT22;18974;50.838;4.636;2024-02-21T14:21:55;11.10;99.90
32536;DHT22;18974;50.838;4.636;2024-02-21T14:24:22;11.10;99.90
32536;DHT22;18974;50.838;4.636;2024-02-21T14:26:48;11.20;99.90
32536;DHT22;18974;50.838;4.636;2024-02-21T14:29:14;11.10;99.90
32536;DHT22;18974;50.838;4.636;2024-02-21T14:31:39;11.10;99.90
32536;DHT22;18974;50.838;4.636;2024-02-21T14:34:05;11.00;99.90
32536;DHT22;18974;50.838;4.636;2024-02-21T14:36:33;11.00;99.90
32536;DHT22;18974;50.838;4.636;2024-02-21T14:38:59;11.00;99.90
32536;DHT22;18974;50.838;4.636;2024-02-21T14:41:24;11.00;99.90
32536;DHT22;18974;50.838;4.636;2024-02-21T14:43:50;10.90;99.90
32536;DHT22;18974;50.838;4.636;2024-02-21T14:46:17;10.80;99.90
32536;DHT22;18974;50.838;4.636;2024-02-21T14:48:42;10.80;99.90
32536;DHT22;18974;50.838;4.636;2024-02-21T14:51:08;10.80;99.90
32536;DHT22;18974;50.838;4.636;2024-02-21T14:53:34;10.70;99.90
32536;DHT22;18974;50.838;4.636;2024-02-21T14:56:00;10.60;99.90
32536;DHT22;18974;50.838;4.636;2024-02-21T14:58:25;10.50;99.90
32536;DHT22;18974;50.838;4.636;2024-02-21T15:00:51;10.50;99.90
32536;DHT22;18974;50.838;4.636;2024-02-21T15:03:17;10.50;99.90
32536;DHT22;18974;50.838;4.636;2024-02-21T15:05:46;10.50;99.90
32536;DHT22;18974;50.838;4.636;2024-02-21T15:08:12;10.50;99.90
32536;DHT22;18974;50.838;4.636;2024-02-21T15:10:42;10.50;99.90
32536;DHT22;18974;50.838;4.636;2024-02-21T15:13:07;10.50;99.90
32536;DHT22;18974;50.838;4.636;2024-02-21T15:15:33;10.40;99.90
32536;DHT22;18974;50.838;4.636;2024-02-21T15:17:59;10.30;99.90
32536;DHT22;18974;50.838;4.636;2024-02-21T15:20:24;10.30;99.90
32536;DHT22;18974;50.838;4.636;2024-02-21T15:22:52;10.30;99.90
32536;DHT22;18974;50.838;4.636;2024-02-21T15:25:18;10.30;99.90
32536;DHT22;18974;50.838;4.636;2024-02-21T15:27:44;10.20;99.90
32536;DHT22;18974;50.838;4.636;2024-02-21T15:30:13;10.20;99.90
32536;DHT22;18974;50.838;4.636;2024-02-21T15:32:42;10.20;99.90
32536;DHT22;18974;50.838;4.636;2024-02-21T15:35:10;10.10;99.90